sensor_id;sensor_type;location;lat;lon;timestamp;temperature;humidity
47618;DHT22;33336;36.728;-4.414;2022-12-18T00:03:32;14.30;99.10
47618;DHT22;33336;36.728;-4.414;2022-12-18T00:08:35;14.20;99.20
47618;DHT22;33336;36.728;-4.414;2022-12-18T00:13:40;14.30;98.50
47618;DHT22;33336;36.728;-4.414;2022-12-18T00:18:43;13.80;99.10
47618;DHT22;33336;36.728;-4.414;2022-12-18T00:23:47;13.70;99.10
47618;DHT22;33336;36.728;-4.414;2022-12-18T00:28:52;13.70;99.10
47618;DHT22;33336;36.728;-4.414;2022-12-18T00:33:57;13.80;99.90
47618;DHT22;33336;36.728;-4.414;2022-12-18T00:39:02;13.70;99.80
47618;DHT22;33336;36.728;-4.414;2022-12-18T00:44:09;13.90;99.70
47618;DHT22;33336;36.728;-4.414;2022-12-18T00:49:14;13.80;99.90
47618;DHT22;33336;36.728;-4.414;2022-12-18T00:54:17;13.80;99.50
47618;DHT22;33336;36.728;-4.414;2022-12-18T00:59:22;13.80;99.20
47618;DHT22;33336;36.728;-4.414;2022-12-18T01:04:25;13.80;99.10
47618;DHT22;33336;36.728;-4.414;2022-12-18T01:09:28;13.70;99.00
47618;DHT22;33336;36.728;-4.414;2022-12-18T01:14:33;13.80;98.10
47618;DHT22;33336;36.728;-4.414;2022-12-18T01:19:36;13.80;98.10
47618;DHT22;33336;36.728;-4.414;2022-12-18T01:24:39;13.60;97.80
47618;DHT22;33336;36.728;-4.414;2022-12-18T01:29:44;13.50;97.80
47618;DHT22;33336;36.728;-4.414;2022-12-18T01:34:46;13.30;97.70
47618;DHT22;33336;36.728;-4.414;2022-12-18T01:39:49;13.00;98.30
47618;DHT22;33336;36.728;-4.414;2022-12-18T01:45:02;13.10;98.20
47618;DHT22;33336;36.728;-4.414;2022-12-18T01:50:10;13.10;98.40
47618;DHT22;33336;36.728;-4.414;2022-12-18T01:55:17;12.90;98.60
47618;DHT22;33336;36.728;-4.414;2022-12-18T02:00:23;13.10;98.40
47618;DHT22;33336;36.728;-4.414;2022-12-18T02:05:35;12.90;99.30
47618;DHT22;33336;36.728;-4.414;2022-12-18T02:10:46;12.90;99.10
47618;DHT22;33336;36.728;-4.414;2022-12-18T02:15:57;13.10;98.70
47618;DHT22;33336;36.728;-4.414;2022-12-18T02:21:08;13.00;98.40
47618;DHT22;33336;36.728;-4.414;2022-12-18T02:26:19;13.00;97.70
47618;DHT22;33336;36.728;-4.414;2022-12-18T02:31:27;12.90;98.10
47618;DHT22;33336;36.728;-4.414;2022-12-18T02:36:33;12.90;98.50
47618;DHT22;33336;36.728;-4.414;2022-12-18T02:41:39;12.90;98.30
47618;DHT22;33336;36.728;-4.414;2022-12-18T02:46:44;12.90;98.10
47618;DHT22;33336;36.728;-4.414;2022-12-18T02:51:51;12.90;97.70
47618;DHT22;33336;36.728;-4.414;2022-12-18T02:56:59;13.00;97.40
47618;DHT22;33336;36.728;-4.414;2022-12-18T03:02:14;12.90;97.80
47618;DHT22;33336;36.728;-4.414;2022-12-18T03:07:28;13.00;97.30
47618;DHT22;33336;36.728;-4.414;2022-12-18T03:12:41;12.70;98.00
47618;DHT22;33336;36.728;-4.414;2022-12-18T03:17:52;12.90;97.70
47618;DHT22;33336;36.728;-4.414;2022-12-18T03:23:04;12.90;97.80
47618;DHT22;33336;36.728;-4.414;2022-12-18T03:28:16;12.90;98.20
47618;DHT22;33336;36.728;-4.414;2022-12-18T03:33:25;12.80;98.40
47618;DHT22;33336;36.728;-4.414;2022-12-18T03:38:30;12.70;98.00
47618;DHT22;33336;36.728;-4.414;2022-12-18T03:43:42;12.70;98.20
47618;DHT22;33336;36.728;-4.414;2022-12-18T03:48:59;12.90;98.80
47618;DHT22;33336;36.728;-4.414;2022-12-18T03:54:05;12.90;98.90
47618;DHT22;33336;36.728;-4.414;2022-12-18T03:59:13;12.80;99.60
47618;DHT22;33336;36.728;-4.414;2022-12-18T04:04:18;12.80;99.00
47618;DHT22;33336;36.728;-4.414;2022-12-18T04:09:21;12.80;98.50
47618;DHT22;33336;36.728;-4.414;2022-12-18T04:14:26;12.80;98.70
47618;DHT22;33336;36.728;-4.414;2022-12-18T04:19:29;12.80;99.30
47618;DHT22;33336;36.728;-4.414;2022-12-18T04:24:32;12.70;99.30
47618;DHT22;33336;36.728;-4.414;2022-12-18T04:29:37;12.70;98.60
47618;DHT22;33336;36.728;-4.414;2022-12-18T04:34:40;12.50;98.70
47618;DHT22;33336;36.728;-4.414;2022-12-18T04:39:43;12.40;99.10
47618;DHT22;33336;36.728;-4.414;2022-12-18T04:44:48;12.50;98.80
47618;DHT22;33336;36.728;-4.414;2022-12-18T04:49:50;12.50;98.70
47618;DHT22;33336;36.728;-4.414;2022-12-18T04:54:53;12.60;99.40
47618;DHT22;33336;36.728;-4.414;2022-12-18T04:59:58;12.40;99.50
47618;DHT22;33336;36.728;-4.414;2022-12-18T05:05:00;12.50;99.00
47618;DHT22;33336;36.728;-4.414;2022-12-18T05:10:07;12.70;99.30
47618;DHT22;33336;36.728;-4.414;2022-12-18T05:15:11;12.70;99.40
47618;DHT22;33336;36.728;-4.414;2022-12-18T05:20:15;12.70;99.30
47618;DHT22;33336;36.728;-4.414;2022-12-18T05:25:20;12.80;98.90
47618;DHT22;33336;36.728;-4.414;2022-12-18T05:30:25;12.70;98.80
47618;DHT22;33336;36.728;-4.414;2022-12-18T05:35:28;12.50;99.20
47618;DHT22;33336;36.728;-4.414;2022-12-18T05:40:31;12.30;99.20
47618;DHT22;33336;36.728;-4.414;2022-12-18T05:45:38;12.30;99.00
47618;DHT22;33336;36.728;-4.414;2022-12-18T05:50:42;12.20;99.20
47618;DHT22;33336;36.728;-4.414;2022-12-18T05:55:47;12.20;99.30
47618;DHT22;33336;36.728;-4.414;2022-12-18T06:00:52;12.00;99.80
47618;DHT22;33336;36.728;-4.414;2022-12-18T06:05:54;12.10;99.40
47618;DHT22;33336;36.728;-4.414;2022-12-18T06:10:58;12.20;99.50
47618;DHT22;33336;36.728;-4.414;2022-12-18T06:16:04;12.20;99.80
47618;DHT22;33336;36.728;-4.414;2022-12-18T06:21:06;12.00;99.80
47618;DHT22;33336;36.728;-4.414;2022-12-18T06:26:11;12.00;99.90
47618;DHT22;33336;36.728;-4.414;2022-12-18T06:31:16;12.00;99.90
47618;DHT22;33336;36.728;-4.414;2022-12-18T06:36:18;12.10;99.90
47618;DHT22;33336;36.728;-4.414;2022-12-18T06:41:22;12.20;99.90
47618;DHT22;33336;36.728;-4.414;2022-12-18T06:46:26;12.10;99.90
47618;DHT22;33336;36.728;-4.414;2022-12-18T06:51:30;12.20;99.90
47618;DHT22;33336;36.728;-4.414;2022-12-18T06:56:34;12.10;99.90
47618;DHT22;33336;36.728;-4.414;2022-12-18T07:01:39;12.00;99.90
47618;DHT22;33336;36.728;-4.414;2022-12-18T07:06:41;11.90;99.90
47618;DHT22;33336;36.728;-4.414;2022-12-18T07:11:45;11.70;99.90
47618;DHT22;33336;36.728;-4.414;2022-12-18T07:16:50;11.90;99.90
47618;DHT22;33336;36.728;-4.414;2022-12-18T07:21:53;12.00;99.90
47618;DHT22;33336;36.728;-4.414;2022-12-18T07:26:56;12.20;99.90
47618;DHT22;33336;36.728;-4.414;2022-12-18T07:32:01;12.30;99.90
47618;DHT22;33336;36.728;-4.414;2022-12-18T07:37:04;12.30;99.90
47618;DHT22;33336;36.728;-4.414;2022-12-18T07:42:07;12.30;99.90
47618;DHT22;33336;36.728;-4.414;2022-12-18T07:47:29;12.20;99.90
47618;DHT22;33336;36.728;-4.414;2022-12-18T07:52:35;12.30;99.90
47618;DHT22;33336;36.728;-4.414;2022-12-18T07:57:38;12.30;99.90
47618;DHT22;33336;36.728;-4.414;2022-12-18T08:02:44;12.40;99.90
47618;DHT22;33336;36.728;-4.414;2022-12-18T08:07:47;12.40;99.90
47618;DHT22;33336;36.728;-4.414;2022-12-18T08:12:51;12.50;99.90
47618;DHT22;33336;36.728;-4.414;2022-12-18T08:17:57;12.60;99.90
47618;DHT22;33336;36.728;-4.414;2022-12-18T08:23:01;12.70;99.90
47618;DHT22;33336;36.728;-4.414;2022-12-18T08:28:04;12.80;99.90
47618;DHT22;33336;36.728;-4.414;2022-12-18T08:33:09;12.80;99.90
47618;DHT22;33336;36.728;-4.414;2022-12-18T08:38:11;13.00;99.90
47618;DHT22;33336;36.728;-4.414;2022-12-18T08:43:15;13.10;99.90
47618;DHT22;33336;36.728;-4.414;2022-12-18T08:48:37;12.90;99.90
47618;DHT22;33336;36.728;-4.414;2022-12-18T08:53:40;13.00;99.90
47618;DHT22;33336;36.728;-4.414;2022-12-18T08:58:50;13.30;99.90
47618;DHT22;33336;36.728;-4.414;2022-12-18T09:03:56;13.30;99.90
47618;DHT22;33336;36.728;-4.414;2022-12-18T09:08:58;13.40;99.90
47618;DHT22;33336;36.728;-4.414;2022-12-18T09:14:02;13.30;99.90
47618;DHT22;33336;36.728;-4.414;2022-12-18T09:19:07;13.30;99.90
47618;DHT22;33336;36.728;-4.414;2022-12-18T09:24:12;13.40;99.90
47618;DHT22;33336;36.728;-4.414;2022-12-18T09:29:15;13.40;99.90
47618;DHT22;33336;36.728;-4.414;2022-12-18T09:34:20;13.50;99.90
47618;DHT22;33336;36.728;-4.414;2022-12-18T09:39:23;13.70;99.90
47618;DHT22;33336;36.728;-4.414;2022-12-18T09:44:29;14.00;99.90
47618;DHT22;33336;36.728;-4.414;2022-12-18T09:49:39;14.20;99.90
47618;DHT22;33336;36.728;-4.414;2022-12-18T09:54:46;14.30;99.90
47618;DHT22;33336;36.728;-4.414;2022-12-18T09:59:57;14.30;99.90
47618;DHT22;33336;36.728;-4.414;2022-12-18T10:05:12;14.70;99.90
47618;DHT22;33336;36.728;-4.414;2022-12-18T10:10:26;14.90;99.90
47618;DHT22;33336;36.728;-4.414;2022-12-18T10:15:39;15.40;99.90
47618;DHT22;33336;36.728;-4.414;2022-12-18T10:20:49;15.60;99.90
47618;DHT22;33336;36.728;-4.414;2022-12-18T10:25:59;16.10;99.90
47618;DHT22;33336;36.728;-4.414;2022-12-18T10:31:05;16.20;99.90
47618;DHT22;33336;36.728;-4.414;2022-12-18T10:36:10;16.40;99.90
47618;DHT22;33336;36.728;-4.414;2022-12-18T10:41:24;16.50;99.90
47618;DHT22;33336;36.728;-4.414;2022-12-18T10:46:28;16.50;99.90
47618;DHT22;33336;36.728;-4.414;2022-12-18T10:51:34;16.60;99.90
47618;DHT22;33336;36.728;-4.414;2022-12-18T10:56:40;16.80;99.90
47618;DHT22;33336;36.728;-4.414;2022-12-18T11:01:48;16.90;99.90
47618;DHT22;33336;36.728;-4.414;2022-12-18T11:06:58;17.00;99.90
47618;DHT22;33336;36.728;-4.414;2022-12-18T11:12:03;17.00;99.90
47618;DHT22;33336;36.728;-4.414;2022-12-18T11:17:18;17.20;99.90
47618;DHT22;33336;36.728;-4.414;2022-12-18T11:22:24;17.40;99.80
47618;DHT22;33336;36.728;-4.414;2022-12-18T11:27:29;17.40;99.40
47618;DHT22;33336;36.728;-4.414;2022-12-18T11:32:34;17.60;99.40
47618;DHT22;33336;36.728;-4.414;2022-12-18T11:37:43;17.90;99.30
47618;DHT22;33336;36.728;-4.414;2022-12-18T11:42:51;17.90;98.80
47618;DHT22;33336;36.728;-4.414;2022-12-18T11:48:00;18.00;99.40
47618;DHT22;33336;36.728;-4.414;2022-12-18T11:53:10;18.00;98.90
47618;DHT22;33336;36.728;-4.414;2022-12-18T11:58:29;18.20;98.60
47618;DHT22;33336;36.728;-4.414;2022-12-18T12:03:49;18.00;98.60
47618;DHT22;33336;36.728;-4.414;2022-12-18T12:09:03;18.00;99.50
47618;DHT22;33336;36.728;-4.414;2022-12-18T12:14:18;18.20;98.90
47618;DHT22;33336;36.728;-4.414;2022-12-18T12:19:36;18.40;99.10
47618;DHT22;33336;36.728;-4.414;2022-12-18T12:24:56;18.40;98.30
47618;DHT22;33336;36.728;-4.414;2022-12-18T12:30:05;18.90;98.60
47618;DHT22;33336;36.728;-4.414;2022-12-18T12:35:21;18.90;97.90
47618;DHT22;33336;36.728;-4.414;2022-12-18T12:40:33;18.90;98.00
47618;DHT22;33336;36.728;-4.414;2022-12-18T12:45:40;18.90;99.00
47618;DHT22;33336;36.728;-4.414;2022-12-18T12:50:45;19.20;98.60
47618;DHT22;33336;36.728;-4.414;2022-12-18T12:55:50;18.80;99.50
47618;DHT22;33336;36.728;-4.414;2022-12-18T13:00:59;18.90;99.90
47618;DHT22;33336;36.728;-4.414;2022-12-18T13:06:08;18.90;99.90
47618;DHT22;33336;36.728;-4.414;2022-12-18T13:11:30;19.60;99.90
47618;DHT22;33336;36.728;-4.414;2022-12-18T13:16:50;20.30;99.40
47618;DHT22;33336;36.728;-4.414;2022-12-18T13:21:55;20.90;98.50
47618;DHT22;33336;36.728;-4.414;2022-12-18T13:26:59;21.10;98.50
47618;DHT22;33336;36.728;-4.414;2022-12-18T13:32:10;20.70;99.60
47618;DHT22;33336;36.728;-4.414;2022-12-18T13:37:41;20.30;99.70
47618;DHT22;33336;36.728;-4.414;2022-12-18T13:42:46;21.80;99.10
47618;DHT22;33336;36.728;-4.414;2022-12-18T13:48:16;22.50;98.80
47618;DHT22;33336;36.728;-4.414;2022-12-18T13:53:23;23.50;97.70
47618;DHT22;33336;36.728;-4.414;2022-12-18T13:58:27;23.80;97.70
47618;DHT22;33336;36.728;-4.414;2022-12-18T14:03:31;24.10;97.60
47618;DHT22;33336;36.728;-4.414;2022-12-18T14:08:38;25.10;95.60
47618;DHT22;33336;36.728;-4.414;2022-12-18T14:13:43;25.50;96.00
47618;DHT22;33336;36.728;-4.414;2022-12-18T14:18:48;26.20;94.40
47618;DHT22;33336;36.728;-4.414;2022-12-18T14:24:12;27.30;92.90
47618;DHT22;33336;36.728;-4.414;2022-12-18T14:29:25;27.30;93.80
47618;DHT22;33336;36.728;-4.414;2022-12-18T14:34:29;27.30;92.70
47618;DHT22;33336;36.728;-4.414;2022-12-18T14:39:32;26.50;92.80
47618;DHT22;33336;36.728;-4.414;2022-12-18T14:44:36;27.40;92.60
47618;DHT22;33336;36.728;-4.414;2022-12-18T14:49:42;28.10;92.70
47618;DHT22;33336;36.728;-4.414;2022-12-18T14:54:46;28.80;93.10
47618;DHT22;33336;36.728;-4.414;2022-12-18T14:59:51;29.20;90.80
47618;DHT22;33336;36.728;-4.414;2022-12-18T15:05:00;27.10;91.90
47618;DHT22;33336;36.728;-4.414;2022-12-18T15:10:11;27.80;90.60
47618;DHT22;33336;36.728;-4.414;2022-12-18T15:15:47;28.80;89.40
47618;DHT22;33336;36.728;-4.414;2022-12-18T15:20:51;29.00;91.00
47618;DHT22;33336;36.728;-4.414;2022-12-18T15:25:56;29.40;90.70
47618;DHT22;33336;36.728;-4.414;2022-12-18T15:31:04;28.60;91.00
47618;DHT22;33336;36.728;-4.414;2022-12-18T15:36:10;27.80;91.00
47618;DHT22;33336;36.728;-4.414;2022-12-18T15:41:14;29.90;90.60
47618;DHT22;33336;36.728;-4.414;2022-12-18T15:46:22;29.40;89.70
47618;DHT22;33336;36.728;-4.414;2022-12-18T15:51:28;28.90;90.20
47618;DHT22;33336;36.728;-4.414;2022-12-18T15:56:32;29.40;88.80
47618;DHT22;33336;36.728;-4.414;2022-12-18T16:01:53;28.40;90.20
47618;DHT22;33336;36.728;-4.414;2022-12-18T16:06:56;30.20;88.30
47618;DHT22;33336;36.728;-4.414;2022-12-18T16:11:59;27.90;89.10
47618;DHT22;33336;36.728;-4.414;2022-12-18T16:17:08;28.60;88.00
47618;DHT22;33336;36.728;-4.414;2022-12-18T16:22:19;29.10;86.70
47618;DHT22;33336;36.728;-4.414;2022-12-18T16:27:24;29.20;87.10
47618;DHT22;33336;36.728;-4.414;2022-12-18T16:32:28;28.70;88.30
47618;DHT22;33336;36.728;-4.414;2022-12-18T16:37:32;27.80;88.60
47618;DHT22;33336;36.728;-4.414;2022-12-18T16:42:35;26.10;90.10
47618;DHT22;33336;36.728;-4.414;2022-12-18T16:47:40;24.60;91.50
47618;DHT22;33336;36.728;-4.414;2022-12-18T16:52:44;22.80;93.50
47618;DHT22;33336;36.728;-4.414;2022-12-18T16:57:47;22.20;95.00
47618;DHT22;33336;36.728;-4.414;2022-12-18T17:02:54;22.10;94.70
47618;DHT22;33336;36.728;-4.414;2022-12-18T17:07:57;21.30;95.60
47618;DHT22;33336;36.728;-4.414;2022-12-18T17:13:00;20.80;95.60
47618;DHT22;33336;36.728;-4.414;2022-12-18T17:18:05;20.80;95.90
47618;DHT22;33336;36.728;-4.414;2022-12-18T17:23:07;20.60;95.70
47618;DHT22;33336;36.728;-4.414;2022-12-18T17:28:11;20.40;95.70
47618;DHT22;33336;36.728;-4.414;2022-12-18T17:33:15;20.30;95.70
47618;DHT22;33336;36.728;-4.414;2022-12-18T17:38:19;20.30;95.70
47618;DHT22;33336;36.728;-4.414;2022-12-18T17:43:22;19.90;96.10
47618;DHT22;33336;36.728;-4.414;2022-12-18T17:48:26;19.80;96.20
47618;DHT22;33336;36.728;-4.414;2022-12-18T17:53:29;19.70;96.40
47618;DHT22;33336;36.728;-4.414;2022-12-18T17:58:35;19.40;96.90
47618;DHT22;33336;36.728;-4.414;2022-12-18T18:03:40;19.20;97.30
47618;DHT22;33336;36.728;-4.414;2022-12-18T18:08:43;19.00;97.80
47618;DHT22;33336;36.728;-4.414;2022-12-18T18:13:46;18.90;98.20
47618;DHT22;33336;36.728;-4.414;2022-12-18T18:19:09;18.80;98.40
47618;DHT22;33336;36.728;-4.414;2022-12-18T18:24:14;18.70;98.70
47618;DHT22;33336;36.728;-4.414;2022-12-18T18:29:20;18.60;98.90
47618;DHT22;33336;36.728;-4.414;2022-12-18T18:34:26;18.50;99.40
47618;DHT22;33336;36.728;-4.414;2022-12-18T18:39:29;18.40;99.80
47618;DHT22;33336;36.728;-4.414;2022-12-18T18:44:32;18.20;99.90
47618;DHT22;33336;36.728;-4.414;2022-12-18T18:49:36;18.20;99.90
47618;DHT22;33336;36.728;-4.414;2022-12-18T18:54:40;18.00;99.90
47618;DHT22;33336;36.728;-4.414;2022-12-18T18:59:43;18.00;99.90
47618;DHT22;33336;36.728;-4.414;2022-12-18T19:04:48;17.60;99.90
47618;DHT22;33336;36.728;-4.414;2022-12-18T19:09:52;17.60;99.90
47618;DHT22;33336;36.728;-4.414;2022-12-18T19:14:55;17.70;99.90
47618;DHT22;33336;36.728;-4.414;2022-12-18T19:19:59;17.40;99.90
47618;DHT22;33336;36.728;-4.414;2022-12-18T19:25:02;17.50;99.90
47618;DHT22;33336;36.728;-4.414;2022-12-18T19:30:07;17.50;99.90
47618;DHT22;33336;36.728;-4.414;2022-12-18T19:35:12;17.50;99.90
47618;DHT22;33336;36.728;-4.414;2022-12-18T19:40:15;17.20;99.90
47618;DHT22;33336;36.728;-4.414;2022-12-18T19:45:18;17.30;99.90
47618;DHT22;33336;36.728;-4.414;2022-12-18T19:50:23;17.40;99.90
47618;DHT22;33336;36.728;-4.414;2022-12-18T19:55:27;17.30;99.90
47618;DHT22;33336;36.728;-4.414;2022-12-18T20:00:30;17.40;99.90
47618;DHT22;33336;36.728;-4.414;2022-12-18T20:05:34;17.40;99.90
47618;DHT22;33336;36.728;-4.414;2022-12-18T20:10:37;17.30;99.90
47618;DHT22;33336;36.728;-4.414;2022-12-18T20:15:40;17.40;99.90
47618;DHT22;33336;36.728;-4.414;2022-12-18T20:20:44;17.40;99.90
47618;DHT22;33336;36.728;-4.414;2022-12-18T20:25:47;17.40;99.90
47618;DHT22;33336;36.728;-4.414;2022-12-18T20:30:57;17.40;99.90
47618;DHT22;33336;36.728;-4.414;2022-12-18T20:36:03;17.40;99.90
47618;DHT22;33336;36.728;-4.414;2022-12-18T20:41:07;17.40;99.90
47618;DHT22;33336;36.728;-4.414;2022-12-18T20:46:13;17.40;99.90
47618;DHT22;33336;36.728;-4.414;2022-12-18T20:51:19;17.20;99.90
47618;DHT22;33336;36.728;-4.414;2022-12-18T20:56:23;17.10;99.90
47618;DHT22;33336;36.728;-4.414;2022-12-18T21:01:28;17.10;99.90
47618;DHT22;33336;36.728;-4.414;2022-12-18T21:06:33;17.10;99.90
47618;DHT22;33336;36.728;-4.414;2022-12-18T21:11:37;17.10;99.90
47618;DHT22;33336;36.728;-4.414;2022-12-18T21:16:59;17.00;99.90
47618;DHT22;33336;36.728;-4.414;2022-12-18T21:22:04;17.00;99.90
47618;DHT22;33336;36.728;-4.414;2022-12-18T21:27:07;17.00;99.90
47618;DHT22;33336;36.728;-4.414;2022-12-18T21:32:10;17.00;99.90
47618;DHT22;33336;36.728;-4.414;2022-12-18T21:37:15;16.90;99.90
47618;DHT22;33336;36.728;-4.414;2022-12-18T21:42:18;16.90;99.90
47618;DHT22;33336;36.728;-4.414;2022-12-18T21:47:39;16.90;99.90
47618;DHT22;33336;36.728;-4.414;2022-12-18T21:52:44;16.90;99.90
47618;DHT22;33336;36.728;-4.414;2022-12-18T21:58:11;16.90;99.90
47618;DHT22;33336;36.728;-4.414;2022-12-18T22:03:14;16.90;99.90
47618;DHT22;33336;36.728;-4.414;2022-12-18T22:08:20;16.90;99.90
47618;DHT22;33336;36.728;-4.414;2022-12-18T22:13:23;17.00;99.90
47618;DHT22;33336;36.728;-4.414;2022-12-18T22:18:26;17.10;99.90
47618;DHT22;33336;36.728;-4.414;2022-12-18T22:23:30;16.90;99.90
47618;DHT22;33336;36.728;-4.414;2022-12-18T22:28:34;16.90;99.90
47618;DHT22;33336;36.728;-4.414;2022-12-18T22:33:54;16.90;99.90
47618;DHT22;33336;36.728;-4.414;2022-12-18T22:38:58;17.00;99.90
47618;DHT22;33336;36.728;-4.414;2022-12-18T22:44:01;17.00;99.90
47618;DHT22;33336;36.728;-4.414;2022-12-18T22:49:05;16.90;99.90
47618;DHT22;33336;36.728;-4.414;2022-12-18T22:54:10;16.90;99.90
47618;DHT22;33336;36.728;-4.414;2022-12-18T22:59:15;16.80;99.90
47618;DHT22;33336;36.728;-4.414;2022-12-18T23:04:19;16.80;99.90
47618;DHT22;33336;36.728;-4.414;2022-12-18T23:09:24;16.80;99.90
47618;DHT22;33336;36.728;-4.414;2022-12-18T23:14:27;16.80;99.90
47618;DHT22;33336;36.728;-4.414;2022-12-18T23:19:31;16.70;99.90
47618;DHT22;33336;36.728;-4.414;2022-12-18T23:24:38;16.60;99.90
47618;DHT22;33336;36.728;-4.414;2022-12-18T23:29:40;16.70;99.90
47618;DHT22;33336;36.728;-4.414;2022-12-18T23:34:43;16.60;99.90
47618;DHT22;33336;36.728;-4.414;2022-12-18T23:39:48;16.50;99.90
47618;DHT22;33336;36.728;-4.414;2022-12-18T23:44:51;16.40;99.90
47618;DHT22;33336;36.728;-4.414;2022-12-18T23:49:54;16.60;99.90
47618;DHT22;33336;36.728;-4.414;2022-12-18T23:54:58;16.70;99.90
